Startpagina
METAR-TAF:

METAR-TAF

Vliegvelden :

Teheran Mehrabad International Airport

Teheran, Iran

breedte: 35-41N, lengte: 051-21E, hoogte: 1204 m

Actueel weer

Dit bericht is 33 minuten geleden gemaakt, om 20:00 UTC
Wind 6 kt uit het westnoordwesten
Temperatuur 8°C
Vochtigheid 61%
Druk 1011 hPa
Zicht 10 km of meer
geen wolken onder 1500 m en geen cumulonimbus

METAR: OIII 222000Z 30006KT CAVOK 08/01 Q1010 A2984 NOSIG

Tijdstip: 01:03 (20:33 UTC)

Verwachting

Dit bericht is 3 uur en het 3 minuten geleden gemaakt, om 17:30 UTC
Verwachting geldig van 22 om 18 UTC tot 23 om 24 UTC
Wind 10 kt uit het westnoordwesten
Zicht: 7000 m
Verspreide wolken op 4000 ft
Tijdelijke
van 23 om 09 UTC tot 23 om 15 UTC
Wind 18 kt uit het westnoordwesten met uitschieters tot 28 kt
Zicht: 4000 m
Weinig wolken op 3000 ft, Cumulonimbus.
Verspreide wolken op 3500 ft
Gebroken wolken op 9000 ft
regen

TAF: OIII 221730Z 2218/2324 30010KT 7000 SCT040 TEMPO 2309/2315 30018G28KT 4000 RA FEW030CB SCT035 BKN090

Waarnemingen en weersverwachtingen van meer dan 4000 vliegvelden (METAR en TAF).

De beschikbare stations zijn de gele en rode punten op de kaart.

Ga met uw muis naar het station om de naam te zien.

Klik dan om waarnemingen en weersverwachtingen te zien.

kaart wijzigen: klik op de groene knoppen met een zwart kruis om in te zoomen, op de groene knop met een streepje om uit te zoomen of op de groene pijlen voor aangrenzende kaarten.


METAR-TAF: